createdAt,value
2019-02-23T00:00:37.499Z,4.65
2019-02-23T00:03:29.027Z,4.97
2019-02-23T00:06:29.342Z,5.37
2019-02-23T00:09:10.347Z,5.95
2019-02-23T00:12:00.623Z,7.83
2019-02-23T00:14:50.348Z,4.65
2019-02-23T00:17:40.171Z,10.25
2019-02-23T00:20:29.975Z,4.85
2019-02-23T00:23:20.035Z,5.25
2019-02-23T00:26:09.818Z,8.55
2019-02-23T00:28:59.602Z,7.05
2019-02-23T00:31:49.625Z,8.63
2019-02-23T00:34:39.782Z,4.67
2019-02-23T00:37:32.446Z,4.87
2019-02-23T00:40:22.522Z,4.97
2019-02-23T00:43:12.376Z,11.30
2019-02-23T00:46:02.115Z,8.28
2019-02-23T00:48:51.867Z,8.20
2019-02-23T00:51:41.669Z,6.03
2019-02-23T00:54:31.235Z,5.65
2019-02-23T00:57:21.106Z,4.97
2019-02-23T01:00:11.832Z,6.15
2019-02-23T01:03:01.882Z,6.33
2019-02-23T01:05:51.372Z,6.25
2019-02-23T01:08:41.012Z,5.67
2019-02-23T01:11:30.896Z,6.70
2019-02-23T01:14:20.879Z,5.37
2019-02-23T01:17:10.482Z,5.15
2019-02-23T01:20:00.610Z,6.00
2019-02-23T01:22:51.548Z,9.25
2019-02-23T01:25:41.343Z,8.10
2019-02-23T01:28:31.013Z,4.15
2019-02-23T01:31:20.802Z,4.92
2019-02-23T01:34:10.895Z,7.20
2019-02-23T01:37:00.693Z,6.90
2019-02-23T01:39:50.365Z,4.05
2019-02-23T01:42:40.619Z,4.78
2019-02-23T01:45:30.692Z,10.98
2019-02-23T01:48:20.443Z,5.15
2019-02-23T01:51:10.516Z,5.00
2019-02-23T01:54:00.675Z,4.08
2019-02-23T01:56:50.165Z,3.92
2019-02-23T01:59:40.101Z,5.83
2019-02-23T02:02:29.955Z,6.28
2019-02-23T02:05:19.475Z,5.37
2019-02-23T02:08:09.986Z,6.50
2019-02-23T02:10:59.516Z,5.85
2019-02-23T02:13:49.513Z,5.75
2019-02-23T02:16:39.552Z,4.58
2019-02-23T02:19:29.393Z,8.05
2019-02-23T02:22:19.105Z,3.95
2019-02-23T02:25:09.268Z,6.37
2019-02-23T02:27:59.162Z,6.33
2019-02-23T02:30:49.124Z,4.72
2019-02-23T02:34:07.712Z,4.62
2019-02-23T02:36:57.495Z,3.58
2019-02-23T02:39:47.252Z,8.90
2019-02-23T02:42:37.013Z,6.40
2019-02-23T02:45:29.194Z,6.08
2019-02-23T02:48:19.564Z,5.12
2019-02-23T02:51:09.617Z,4.50
2019-02-23T02:53:59.936Z,4.85
2019-02-23T02:56:49.437Z,5.40
2019-02-23T02:59:39.563Z,5.92
2019-02-23T03:02:30.491Z,5.08
2019-02-23T03:05:20.703Z,6.35
2019-02-23T03:08:10.855Z,6.47
2019-02-23T03:11:02.649Z,5.37
2019-02-23T03:13:52.171Z,4.95
2019-02-23T03:16:42.031Z,3.60
2019-02-23T03:19:32.057Z,4.97
2019-02-23T03:22:22.343Z,5.92
2019-02-23T03:25:12.412Z,4.37
2019-02-23T03:28:02.601Z,6.12
2019-02-23T03:30:52.611Z,7.97
2019-02-23T03:33:42.303Z,5.37
2019-02-23T03:36:32.087Z,6.30
2019-02-23T03:39:22.095Z,6.87
2019-02-23T03:42:11.912Z,6.17
2019-02-23T03:45:01.848Z,7.37
2019-02-23T03:47:51.472Z,6.90
2019-02-23T03:50:48.941Z,4.83
2019-02-23T03:53:32.845Z,5.22
2019-02-23T03:56:22.795Z,6.47
2019-02-23T03:59:12.612Z,4.90
2019-02-23T04:02:02.321Z,7.53
2019-02-23T04:04:51.985Z,5.80
2019-02-23T04:07:42.017Z,5.08
2019-02-23T04:10:31.575Z,4.78
2019-02-23T04:13:21.324Z,6.65
2019-02-23T04:16:11.605Z,9.48
2019-02-23T04:19:01.355Z,6.25
2019-02-23T04:21:51.384Z,6.35
2019-02-23T04:24:41.072Z,6.05
2019-02-23T04:27:30.842Z,6.50
2019-02-23T04:30:20.653Z,6.58
2019-02-23T04:33:10.392Z,5.03
2019-02-23T04:36:00.422Z,6.85
2019-02-23T04:38:50.253Z,6.22
2019-02-23T04:41:40.097Z,6.42
2019-02-23T04:44:30.453Z,5.53
2019-02-23T04:47:20.406Z,9.43
2019-02-23T04:50:10.226Z,9.60
2019-02-23T04:52:59.793Z,5.78
2019-02-23T04:55:49.406Z,5.75
2019-02-23T04:58:39.012Z,9.63
2019-02-23T05:01:28.833Z,4.45
2019-02-23T05:04:18.691Z,5.80
2019-02-23T05:07:08.505Z,7.47
2019-02-23T05:09:58.067Z,9.33
2019-02-23T05:12:47.965Z,5.92
2019-02-23T05:15:37.816Z,7.30
2019-02-23T05:18:28.322Z,5.47
2019-02-23T05:21:25.952Z,5.53
2019-02-23T05:24:09.925Z,5.17
2019-02-23T05:26:59.784Z,5.87
2019-02-23T05:29:49.196Z,6.30
2019-02-23T05:32:39.037Z,6.75
2019-02-23T05:35:28.865Z,5.60
2019-02-23T05:38:18.792Z,8.00
2019-02-23T05:41:08.819Z,4.95
2019-02-23T05:43:58.282Z,6.92
2019-02-23T05:46:48.042Z,5.60
2019-02-23T05:49:37.865Z,4.85
2019-02-23T05:52:28.013Z,3.87
2019-02-23T05:55:17.939Z,7.37
2019-02-23T05:58:07.746Z,6.05
2019-02-23T06:00:57.897Z,4.97
2019-02-23T06:03:47.526Z,9.03
2019-02-23T06:06:37.213Z,8.35
2019-02-23T06:09:27.093Z,7.75
2019-02-23T06:12:16.719Z,5.40
2019-02-23T06:15:07.892Z,14.70
2019-02-23T06:17:57.981Z,5.08
2019-02-23T06:20:47.652Z,8.73
2019-02-23T06:23:37.353Z,5.15
2019-02-23T06:26:27.036Z,4.95
2019-02-23T06:29:17.102Z,7.75
2019-02-23T06:32:06.910Z,7.40
2019-02-23T06:34:56.472Z,8.88
2019-02-23T06:37:46.432Z,6.28
2019-02-23T06:40:36.159Z,7.45
2019-02-23T06:43:25.925Z,9.28
2019-02-23T06:46:15.726Z,10.03
2019-02-23T06:49:05.273Z,9.20
2019-02-23T06:52:03.994Z,8.00
2019-02-23T06:54:46.881Z,9.33
2019-02-23T06:57:36.424Z,9.48
2019-02-23T07:00:29.800Z,10.08
2019-02-23T07:03:19.260Z,8.15
2019-02-23T07:06:09.075Z,9.38
2019-02-23T07:08:58.865Z,12.37
2019-02-23T07:11:49.213Z,9.53
2019-02-23T07:14:38.909Z,9.00
2019-02-23T07:17:28.371Z,7.92
2019-02-23T07:20:18.543Z,6.60
2019-02-23T07:23:08.575Z,11.20
2019-02-23T07:25:58.356Z,9.25
2019-02-23T07:28:48.111Z,8.63
2019-02-23T07:31:37.953Z,6.95
2019-02-23T07:34:28.284Z,5.97
2019-02-23T07:37:18.297Z,8.68
2019-02-23T07:40:08.444Z,5.83
2019-02-23T07:42:58.421Z,7.65
2019-02-23T07:45:48.426Z,8.13
2019-02-23T07:48:38.015Z,8.75
2019-02-23T07:51:27.994Z,7.42
2019-02-23T07:54:17.753Z,7.42
2019-02-23T07:57:08.363Z,11.43
2019-02-23T07:59:57.766Z,10.53
2019-02-23T08:02:47.422Z,8.25
2019-02-23T08:05:37.307Z,8.73
2019-02-23T08:08:26.773Z,10.28
2019-02-23T08:11:16.513Z,10.88
2019-02-23T08:14:06.145Z,10.00
2019-02-23T08:16:55.771Z,8.33
2019-02-23T08:19:45.771Z,10.50
2019-02-23T08:22:37.529Z,9.88
2019-02-23T08:25:27.282Z,9.68
2019-02-23T08:28:16.955Z,10.70
2019-02-23T08:31:06.853Z,10.75
2019-02-23T08:33:56.854Z,11.28
2019-02-23T08:36:46.318Z,13.40
2019-02-23T08:39:35.761Z,11.10
2019-02-23T08:42:25.551Z,13.08
2019-02-23T08:45:15.023Z,14.30
2019-02-23T08:48:04.561Z,12.37
2019-02-23T08:50:55.292Z,8.78
2019-02-23T08:53:44.701Z,10.78
2019-02-23T08:56:34.633Z,12.07
2019-02-23T08:59:24.202Z,11.93
2019-02-23T09:02:13.891Z,15.18
2019-02-23T09:05:03.665Z,14.05
2019-02-23T09:07:54.791Z,12.20
2019-02-23T09:10:44.484Z,12.93
2019-02-23T09:13:34.080Z,12.70
2019-02-23T09:16:23.706Z,11.48
2019-02-23T09:19:13.182Z,11.90
2019-02-23T09:22:02.966Z,13.72
2019-02-23T09:24:52.754Z,10.95
2019-02-23T09:27:43.026Z,10.38
2019-02-23T09:30:32.713Z,12.28
2019-02-23T09:33:22.374Z,12.40
2019-02-23T09:36:11.887Z,13.08
2019-02-23T09:39:01.522Z,13.45
2019-02-23T09:41:52.841Z,9.78
2019-02-23T09:44:42.933Z,11.97
2019-02-23T09:47:32.914Z,9.63
2019-02-23T09:50:23.031Z,15.88
2019-02-23T09:53:12.974Z,14.18
2019-02-23T09:56:02.532Z,10.95
2019-02-23T09:58:51.952Z,14.20
2019-02-23T10:01:41.715Z,10.13
2019-02-23T10:04:31.418Z,10.70
2019-02-23T10:07:21.241Z,11.55
2019-02-23T10:10:10.982Z,8.48
2019-02-23T10:13:00.784Z,12.15
2019-02-23T10:15:50.537Z,11.57
2019-02-23T10:18:40.194Z,10.90
2019-02-23T10:21:30.436Z,9.35
2019-02-23T10:24:19.953Z,13.05
2019-02-23T10:27:09.722Z,12.25
2019-02-23T10:29:59.502Z,9.45
2019-02-23T10:32:49.756Z,10.18
2019-02-23T10:35:39.381Z,10.25
2019-02-23T10:38:29.364Z,10.13
2019-02-23T10:41:20.008Z,9.88
2019-02-23T10:44:10.464Z,7.37
2019-02-23T10:47:01.977Z,7.37
2019-02-23T10:49:54.294Z,8.73
2019-02-23T10:52:43.915Z,10.43
2019-02-23T10:55:33.824Z,10.05
2019-02-23T10:58:23.741Z,11.20
2019-02-23T11:01:13.965Z,8.45
2019-02-23T11:04:04.364Z,8.80
2019-02-23T11:06:54.110Z,11.63
2019-02-23T11:09:44.004Z,12.07
2019-02-23T11:12:34.035Z,11.08
2019-02-23T11:15:24.326Z,11.22
2019-02-23T11:18:13.781Z,10.45
2019-02-23T11:21:04.228Z,8.50
2019-02-23T11:23:54.277Z,10.20
2019-02-23T11:26:44.636Z,9.40
2019-02-23T11:29:34.907Z,8.55
2019-02-23T11:32:25.742Z,9.93
2019-02-23T11:35:17.332Z,12.85
2019-02-23T11:38:07.534Z,12.58
2019-02-23T11:40:57.823Z,16.45
2019-02-23T11:43:47.957Z,15.65
2019-02-23T11:46:37.939Z,13.20
2019-02-23T11:49:27.892Z,9.93
2019-02-23T11:52:17.871Z,9.08
2019-02-23T11:55:08.289Z,8.33
2019-02-23T11:57:58.232Z,10.40
2019-02-23T12:00:47.824Z,10.72
2019-02-23T12:03:37.731Z,11.33
2019-02-23T12:06:27.538Z,10.53
2019-02-23T12:09:17.075Z,11.97
2019-02-23T12:12:07.228Z,13.43
2019-02-23T12:14:57.325Z,14.68
2019-02-23T12:17:47.012Z,11.48
2019-02-23T12:20:36.896Z,13.22
2019-02-23T12:23:26.994Z,11.88
2019-02-23T12:26:16.845Z,21.15
2019-02-23T12:29:06.854Z,10.32
2019-02-23T12:31:58.245Z,9.70
2019-02-23T12:34:47.491Z,9.25
2019-02-23T12:37:37.114Z,8.80
2019-02-23T12:40:27.201Z,8.85
2019-02-23T12:43:17.186Z,9.23
2019-02-23T12:46:06.885Z,7.35
2019-02-23T12:48:56.764Z,8.33
2019-02-23T12:51:46.428Z,10.00
2019-02-23T12:54:36.066Z,11.57
2019-02-23T12:57:27.093Z,6.92
2019-02-23T13:00:16.946Z,8.28
2019-02-23T13:03:06.734Z,9.75
2019-02-23T13:05:56.626Z,7.72
2019-02-23T13:09:15.414Z,10.45
2019-02-23T13:12:46.307Z,10.10
2019-02-23T13:16:03.241Z,8.40
2019-02-23T13:19:39.631Z,10.25
2019-02-23T13:23:04.518Z,9.83
2019-02-23T13:26:12.593Z,8.35
2019-02-23T13:29:14.155Z,11.10
2019-02-23T13:32:59.156Z,9.48
2019-02-23T13:36:17.505Z,9.45
2019-02-23T13:40:00.313Z,9.00
2019-02-23T13:43:22.884Z,9.40
2019-02-23T13:47:18.392Z,6.95
2019-02-23T13:50:48.315Z,9.50
2019-02-23T13:54:18.547Z,9.18
2019-02-23T13:57:36.912Z,8.45
2019-02-23T14:01:10.599Z,9.80
2019-02-23T14:04:23.765Z,8.25
2019-02-23T14:07:47.854Z,9.15
2019-02-23T14:11:09.101Z,8.10
2019-02-23T14:14:45.093Z,8.08
2019-02-23T14:18:10.711Z,9.58
2019-02-23T14:21:44.521Z,9.23
2019-02-23T14:24:53.685Z,10.63
2019-02-23T14:28:19.851Z,11.57
2019-02-23T14:31:40.900Z,8.78
2019-02-23T14:35:29.681Z,10.05
2019-02-23T14:38:55.111Z,9.23
2019-02-23T14:41:59.831Z,10.63
2019-02-23T14:45:30.259Z,8.18
2019-02-23T14:49:16.417Z,9.98
2019-02-23T14:52:58.999Z,9.73
2019-02-23T14:56:16.695Z,8.23
2019-02-23T14:59:39.319Z,10.18
2019-02-23T15:03:13.084Z,8.75
2019-02-23T15:06:18.456Z,11.48
2019-02-23T15:09:51.252Z,9.53
2019-02-23T15:13:14.140Z,12.73
2019-02-23T15:16:29.755Z,10.20
2019-02-23T15:19:50.736Z,9.78
2019-02-23T15:23:29.566Z,9.98
2019-02-23T15:26:57.232Z,10.98
2019-02-23T15:30:20.791Z,9.15
2019-02-23T15:33:55.549Z,9.85
2019-02-23T15:37:06.857Z,10.15
2019-02-23T15:40:28.824Z,10.75
2019-02-23T15:43:50.209Z,12.07
2019-02-23T15:47:28.421Z,8.95
2019-02-23T15:50:18.568Z,7.72
2019-02-23T15:53:08.049Z,12.70
2019-02-23T15:56:01.214Z,8.43
2019-02-23T15:58:50.872Z,7.65
2019-02-23T16:01:40.292Z,9.85
2019-02-23T16:04:30.106Z,10.00
2019-02-23T16:07:19.522Z,20.45
2019-02-23T16:10:09.113Z,11.95
2019-02-23T16:12:59.055Z,11.43
2019-02-23T16:15:48.554Z,11.55
2019-02-23T16:18:38.204Z,8.70
2019-02-23T16:21:27.827Z,8.48
2019-02-23T16:24:17.254Z,10.98
2019-02-23T16:27:07.184Z,9.10
2019-02-23T16:30:00.445Z,10.55
2019-02-23T16:32:50.217Z,12.03
2019-02-23T16:35:40.248Z,8.90
2019-02-23T16:38:30.152Z,9.95
2019-02-23T16:41:23.132Z,15.28
2019-02-23T16:44:12.914Z,11.25
2019-02-23T16:47:02.604Z,12.30
2019-02-23T16:49:52.676Z,10.95
2019-02-23T16:52:45.411Z,12.75
2019-02-23T16:55:34.994Z,11.95
2019-02-23T16:58:27.535Z,12.93
2019-02-23T17:01:16.927Z,14.28
2019-02-23T17:04:06.395Z,13.00
2019-02-23T17:06:55.791Z,15.03
2019-02-23T17:09:45.323Z,12.78
2019-02-23T17:12:34.944Z,16.52
2019-02-23T17:15:25.119Z,16.42
2019-02-23T17:18:15.362Z,12.53
2019-02-23T17:21:05.073Z,13.50
2019-02-23T17:23:54.638Z,11.95
2019-02-23T17:26:44.532Z,11.95
2019-02-23T17:29:34.256Z,13.03
2019-02-23T17:32:23.971Z,13.83
2019-02-23T17:35:13.756Z,11.75
2019-02-23T17:38:15.396Z,13.48
2019-02-23T17:40:55.861Z,14.55
2019-02-23T17:43:45.599Z,13.10
2019-02-23T17:46:35.022Z,14.45
2019-02-23T17:49:24.652Z,14.30
2019-02-23T17:52:14.022Z,19.17
2019-02-23T17:55:04.349Z,15.90
2019-02-23T17:57:53.923Z,19.98
2019-02-23T18:00:43.542Z,16.37
2019-02-23T18:03:34.136Z,14.40
2019-02-23T18:06:23.905Z,19.05
2019-02-23T18:09:13.597Z,17.20
2019-02-23T18:12:03.243Z,16.25
2019-02-23T18:14:53.144Z,13.75
2019-02-23T18:17:42.911Z,15.08
2019-02-23T18:20:33.808Z,18.30
2019-02-23T18:23:23.595Z,18.45
2019-02-23T18:26:20.841Z,16.57
2019-02-23T18:29:03.863Z,19.90
2019-02-23T18:31:53.149Z,17.82
2019-02-23T18:34:42.983Z,19.00
2019-02-23T18:37:32.615Z,19.52
2019-02-23T18:40:22.172Z,18.73
2019-02-23T18:43:11.672Z,17.82
2019-02-23T18:46:01.018Z,23.02
2019-02-23T18:48:50.427Z,17.35
2019-02-23T18:51:40.152Z,16.93
2019-02-23T18:54:30.081Z,17.87
2019-02-23T18:57:23.942Z,15.93
2019-02-23T19:00:13.647Z,15.25
2019-02-23T19:03:04.322Z,18.17
2019-02-23T19:05:54.707Z,16.60
2019-02-23T19:08:43.886Z,17.95
2019-02-23T19:11:33.834Z,15.90
2019-02-23T19:14:23.332Z,18.42
2019-02-23T19:17:12.885Z,18.95
2019-02-23T19:20:02.635Z,17.00
2019-02-23T19:22:53.826Z,16.52
2019-02-23T19:25:43.444Z,16.57
2019-02-23T19:28:32.984Z,17.30
2019-02-23T19:31:22.310Z,15.18
2019-02-23T19:34:12.047Z,13.28
2019-02-23T19:37:01.489Z,13.28
2019-02-23T19:39:51.433Z,20.97
2019-02-23T19:42:40.818Z,14.50
2019-02-23T19:45:30.816Z,12.70
2019-02-23T19:48:20.407Z,14.35
2019-02-23T19:51:10.795Z,10.45
2019-02-23T19:54:00.338Z,11.55
2019-02-23T19:56:50.165Z,12.33
2019-02-23T19:59:40.131Z,11.03
2019-02-23T20:02:30.404Z,10.00
2019-02-23T20:05:20.284Z,9.53
2019-02-23T20:08:10.076Z,9.75
2019-02-23T20:10:59.991Z,11.57
2019-02-23T20:13:49.593Z,10.60
2019-02-23T20:16:39.947Z,13.25
2019-02-23T20:19:29.574Z,12.53
2019-02-23T20:22:19.055Z,18.12
2019-02-23T20:25:08.759Z,17.15
2019-02-23T20:27:58.086Z,9.60
2019-02-23T20:30:47.493Z,11.50
2019-02-23T20:33:38.162Z,16.02
2019-02-23T20:36:28.216Z,12.65
2019-02-23T20:39:18.393Z,14.40
2019-02-23T20:42:08.251Z,8.48
2019-02-23T20:44:57.812Z,11.22
2019-02-23T20:47:47.175Z,11.95
2019-02-23T20:50:37.163Z,14.63
2019-02-23T20:53:27.466Z,16.52
2019-02-23T20:56:17.087Z,12.93
2019-02-23T20:59:06.806Z,14.50
2019-02-23T21:01:56.595Z,16.45
2019-02-23T21:04:46.331Z,11.90
2019-02-23T21:07:35.986Z,13.60
2019-02-23T21:10:25.626Z,12.10
2019-02-23T21:13:15.851Z,10.38
2019-02-23T21:16:05.304Z,12.53
2019-02-23T21:18:55.220Z,11.63
2019-02-23T21:21:44.876Z,14.38
2019-02-23T21:24:34.323Z,11.68
2019-02-23T21:27:23.955Z,14.03
2019-02-23T21:30:13.483Z,13.68
2019-02-23T21:33:03.457Z,14.10
2019-02-23T21:35:53.445Z,17.75
2019-02-23T21:38:43.329Z,16.85
2019-02-23T21:41:33.590Z,14.60
2019-02-23T21:44:23.612Z,15.98
2019-02-23T21:47:13.386Z,15.20
2019-02-23T21:50:03.281Z,19.30
2019-02-23T21:52:52.960Z,14.70
2019-02-23T21:55:42.949Z,10.40
2019-02-23T21:58:32.535Z,11.08
2019-02-23T22:01:21.920Z,13.90
2019-02-23T22:04:12.084Z,12.33
2019-02-23T22:07:01.803Z,15.48
2019-02-23T22:09:51.727Z,11.10
2019-02-23T22:12:41.500Z,17.85
2019-02-23T22:15:31.270Z,12.53
2019-02-23T22:18:21.072Z,15.23
2019-02-23T22:21:10.739Z,12.80
2019-02-23T22:24:00.313Z,12.37
2019-02-23T22:26:50.091Z,10.32
2019-02-23T22:29:39.771Z,14.20
2019-02-23T22:32:29.044Z,13.80
2019-02-23T22:35:18.646Z,11.00
2019-02-23T22:38:08.329Z,15.98
2019-02-23T22:40:57.962Z,9.83
2019-02-23T22:43:49.528Z,13.78
2019-02-23T22:46:39.504Z,13.20
2019-02-23T22:49:29.376Z,12.98
2019-02-23T22:52:19.052Z,14.78
2019-02-23T22:55:08.602Z,15.58
2019-02-23T22:57:58.322Z,11.85
2019-02-23T23:00:55.766Z,16.02
2019-02-23T23:03:46.875Z,13.68
2019-02-23T23:06:37.912Z,14.47
2019-02-23T23:09:27.768Z,14.45
2019-02-23T23:12:17.562Z,11.25
2019-02-23T23:15:07.336Z,15.70
2019-02-23T23:17:57.235Z,10.13
2019-02-23T23:20:47.102Z,15.40
2019-02-23T23:23:36.766Z,16.12
2019-02-23T23:26:26.022Z,19.27
2019-02-23T23:29:15.417Z,17.42
2019-02-23T23:32:05.294Z,18.80
2019-02-23T23:34:55.078Z,13.20
2019-02-23T23:37:44.762Z,19.80
2019-02-23T23:40:34.434Z,19.48
2019-02-23T23:43:24.413Z,14.98
2019-02-23T23:46:13.862Z,17.48
2019-02-23T23:49:03.376Z,14.45
2019-02-23T23:51:53.122Z,10.88
2019-02-23T23:54:43.033Z,11.70
2019-02-23T23:57:32.592Z,13.03
